Time;durP1;ratioP1;P1;durP2;ratioP2;P2;SDS_P1;SDS_P2;PMS_P1;PMS_P2;Temp;Humidity;BMP_temperature;BMP_pressure;BME280_temperature;BME280_humidity;BME280_pressure;Samples;Min_cycle;Max_cycle;Signal;HPM_P1;HPM_P2
2023/09/11 00:02:10;;;;;;;8.05;5.55;;;;;;;;;;4994964;28;20030;-61
2023/09/11 00:04:36;;;;;;;5.35;4.90;;;;;;;;;;4989705;28;20054;-61
2023/09/11 00:07:02;;;;;;;5.93;4.88;;;;;;;;;;4993336;28;20061;-62
2023/09/11 00:09:27;;;;;;;6.50;4.78;;;;;;;;;;4989456;28;20049;-62
2023/09/11 00:11:53;;;;;;;5.68;5.22;;;;;;;;;;4991869;28;20031;-62
2023/09/11 00:14:18;;;;;;;7.00;5.10;;;;;;;;;;4992390;28;20095;-62
2023/09/11 00:16:43;;;;;;;5.65;5.13;;;;;;;;;;4987997;28;20054;-62
2023/09/11 00:19:11;;;;;;;5.47;5.03;;;;;;;;;;4985267;28;20031;-62
2023/09/11 00:21:36;;;;;;;5.25;4.80;;;;;;;;;;4995081;28;20026;-62
2023/09/11 00:24:03;;;;;;;5.88;5.18;;;;;;;;;;4993027;28;20049;-64
2023/09/11 00:26:29;;;;;;;5.00;4.60;;;;;;;;;;4994889;28;20114;-62
2023/09/11 00:28:54;;;;;;;5.32;4.97;;;;;;;;;;4992005;28;20049;-62
2023/09/11 00:31:20;;;;;;;5.30;4.80;;;;;;;;;;4992774;28;20038;-62
2023/09/11 00:33:45;;;;;;;6.38;4.85;;;;;;;;;;4992539;28;20472;-62
2023/09/11 00:36:11;;;;;;;5.20;4.80;;;;;;;;;;4990572;28;20037;-62
2023/09/11 00:38:36;;;;;;;5.72;4.95;;;;;;;;;;4978323;28;20122;-62
2023/09/11 00:41:02;;;;;;;4.85;4.47;;;;;;;;;;4982527;28;20041;-62
2023/09/11 00:43:27;;;;;;;5.18;4.72;;;;;;;;;;4990615;28;20022;-62
2023/09/11 00:45:55;;;;;;;5.57;5.05;;;;;;;;;;4990080;28;20047;-62
2023/09/11 00:48:20;;;;;;;4.78;4.30;;;;;;;;;;4996243;28;20035;-62
2023/09/11 00:50:46;;;;;;;5.50;5.00;;;;;;;;;;4996305;28;20046;-62
2023/09/11 00:53:13;;;;;;;5.72;4.80;;;;;;;;;;4996488;28;20388;-62
2023/09/11 00:55:39;;;;;;;5.78;4.85;;;;;;;;;;4992345;28;20539;-62
2023/09/11 00:58:05;;;;;;;6.03;5.43;;;;;;;;;;4994784;28;20105;-62
2023/09/11 01:00:30;;;;;;;5.20;4.80;;;;;;;;;;4998853;28;20751;-62
2023/09/11 01:02:57;;;;;;;5.10;4.40;;;;;;;;;;4993957;28;20027;-62
2023/09/11 01:05:27;;;;;;;6.65;4.75;;;;;;;;;;4992950;28;20042;-62
2023/09/11 01:07:53;;;;;;;5.25;4.85;;;;;;;;;;4993052;28;20018;-62
2023/09/11 01:10:18;;;;;;;5.55;5.05;;;;;;;;;;4990167;28;20076;-62
2023/09/11 01:12:44;;;;;;;6.25;5.10;;;;;;;;;;4990760;28;20043;-62
2023/09/11 01:15:10;;;;;;;6.28;5.10;;;;;;;;;;5008807;28;20038;-62
2023/09/11 01:17:48;;;;;;;5.28;4.60;;;;;;;;;;4995197;28;20042;-62
2023/09/11 01:20:34;;;;;;;5.57;5.07;;;;;;;;;;4994873;28;20035;-62
2023/09/11 01:23:14;;;;;;;4.93;4.53;;;;;;;;;;4991058;28;20030;-62
2023/09/11 01:26:16;;;;;;;5.20;4.80;;;;;;;;;;4997546;28;20061;-62
2023/09/11 01:29:26;;;;;;;5.55;4.80;;;;;;;;;;4997779;28;20065;-62
2023/09/11 01:31:53;;;;;;;5.00;4.60;;;;;;;;;;4975551;28;20441;-62
2023/09/11 01:34:19;;;;;;;5.03;4.60;;;;;;;;;;4976185;28;20029;-62
2023/09/11 01:36:44;;;;;;;4.90;4.50;;;;;;;;;;4978843;28;20035;-62
2023/09/11 01:39:11;;;;;;;8.15;4.85;;;;;;;;;;4976245;28;20026;-62
2023/09/11 01:41:40;;;;;;;4.97;4.63;;;;;;;;;;4997098;28;20034;-62
2023/09/11 01:44:16;;;;;;;5.70;4.45;;;;;;;;;;4980662;28;20022;-62
2023/09/11 01:46:44;;;;;;;6.93;4.43;;;;;;;;;;4996474;28;20045;-63
2023/09/11 01:49:10;;;;;;;5.38;4.88;;;;;;;;;;4997044;28;20018;-62
2023/09/11 01:51:38;;;;;;;5.05;4.65;;;;;;;;;;4990659;28;20045;-62
2023/09/11 01:54:05;;;;;;;5.25;4.75;;;;;;;;;;4989556;28;20101;-62
2023/09/11 01:56:31;;;;;;;6.47;4.45;;;;;;;;;;4997985;28;20022;-62
2023/09/11 01:58:56;;;;;;;6.45;4.88;;;;;;;;;;4994161;28;20038;-61
2023/09/11 02:01:22;;;;;;;6.03;4.90;;;;;;;;;;4992354;28;20109;-61
2023/09/11 02:03:47;;;;;;;6.47;4.47;;;;;;;;;;4990707;28;20038;-61
2023/09/11 02:06:13;;;;;;;7.30;4.40;;;;;;;;;;4996329;28;20048;-61
2023/09/11 02:08:38;;;;;;;5.30;4.80;;;;;;;;;;4990415;28;20511;-61
2023/09/11 02:11:04;;;;;;;5.15;4.75;;;;;;;;;;4993581;28;20429;-62
2023/09/11 02:13:29;;;;;;;8.27;4.88;;;;;;;;;;4992712;28;20037;-62
2023/09/11 02:15:54;;;;;;;4.70;4.30;;;;;;;;;;4991510;28;20129;-62
2023/09/11 02:18:20;;;;;;;5.15;4.68;;;;;;;;;;4980859;28;20047;-62
2023/09/11 02:20:47;;;;;;;5.07;4.65;;;;;;;;;;4990598;28;20038;-62
2023/09/11 02:23:14;;;;;;;4.70;4.30;;;;;;;;;;4988110;28;20449;-62
2023/09/11 02:25:40;;;;;;;5.28;4.45;;;;;;;;;;4983575;28;20081;-62
2023/09/11 02:28:06;;;;;;;5.18;4.25;;;;;;;;;;4988992;28;20073;-62
2023/09/11 02:30:31;;;;;;;5.45;4.78;;;;;;;;;;4992630;28;20034;-62
2023/09/11 02:32:57;;;;;;;5.45;4.82;;;;;;;;;;4994300;28;20105;-62
2023/09/11 02:35:23;;;;;;;6.00;4.70;;;;;;;;;;4995856;28;20046;-62
2023/09/11 02:37:48;;;;;;;5.85;4.40;;;;;;;;;;4995152;28;20700;-63
2023/09/11 02:40:14;;;;;;;4.95;4.57;;;;;;;;;;4997522;28;20050;-62
2023/09/11 02:42:39;;;;;;;4.78;4.20;;;;;;;;;;4993303;28;20437;-62
2023/09/11 02:45:05;;;;;;;7.63;4.47;;;;;;;;;;4995427;28;20034;-62
2023/09/11 02:47:31;;;;;;;5.30;4.80;;;;;;;;;;4996424;28;20034;-62
2023/09/11 02:49:56;;;;;;;6.38;4.85;;;;;;;;;;4989670;28;20042;-62
2023/09/11 02:52:21;;;;;;;5.28;4.88;;;;;;;;;;4987042;28;20022;-62
2023/09/11 02:54:47;;;;;;;4.95;4.47;;;;;;;;;;4992692;28;20106;-62
2023/09/11 02:57:12;;;;;;;5.97;4.43;;;;;;;;;;4980183;28;20074;-62
2023/09/11 02:59:38;;;;;;;7.53;4.65;;;;;;;;;;4995432;28;20046;-63
2023/09/11 03:02:04;;;;;;;4.72;4.32;;;;;;;;;;4993397;28;20034;-62
2023/09/11 03:04:29;;;;;;;5.07;4.50;;;;;;;;;;4992124;28;20104;-62
2023/09/11 03:06:55;;;;;;;4.85;4.38;;;;;;;;;;4993063;28;20038;-62
2023/09/11 03:09:20;;;;;;;5.10;4.45;;;;;;;;;;4996252;28;20070;-62
2023/09/11 03:11:46;;;;;;;5.53;4.47;;;;;;;;;;4992824;28;20038;-62
2023/09/11 03:14:13;;;;;;;5.45;4.55;;;;;;;;;;4992278;28;20027;-62
2023/09/11 03:16:43;;;;;;;7.45;4.70;;;;;;;;;;4988532;28;20034;-62
2023/09/11 03:19:09;;;;;;;4.88;4.47;;;;;;;;;;4996377;28;20030;-62
2023/09/11 03:21:34;;;;;;;5.35;4.85;;;;;;;;;;4985221;28;20022;-62
2023/09/11 03:24:00;;;;;;;5.00;4.50;;;;;;;;;;4979360;28;20810;-61
2023/09/11 03:26:25;;;;;;;5.80;4.80;;;;;;;;;;4993421;28;20030;-62
2023/09/11 03:28:50;;;;;;;4.50;4.10;;;;;;;;;;4996439;28;20034;-62
2023/09/11 03:31:16;;;;;;;6.25;4.95;;;;;;;;;;4993541;28;20034;-62
2023/09/11 03:33:42;;;;;;;4.75;4.35;;;;;;;;;;4984320;28;20052;-62
2023/09/11 03:36:08;;;;;;;5.78;4.57;;;;;;;;;;4994749;28;20042;-62
2023/09/11 03:38:33;;;;;;;5.03;4.60;;;;;;;;;;4992268;28;20129;-62
2023/09/11 03:40:59;;;;;;;5.28;4.60;;;;;;;;;;4991408;28;20058;-62
2023/09/11 03:43:24;;;;;;;4.68;4.30;;;;;;;;;;4993464;28;20040;-62
2023/09/11 03:45:50;;;;;;;4.82;4.43;;;;;;;;;;4996376;28;20128;-62
2023/09/11 03:48:15;;;;;;;4.43;4.00;;;;;;;;;;4992991;28;20029;-62
2023/09/11 03:50:41;;;;;;;4.60;4.13;;;;;;;;;;4990955;28;20509;-62
2023/09/11 03:53:06;;;;;;;5.43;4.70;;;;;;;;;;4990203;28;20045;-62
2023/09/11 03:55:32;;;;;;;5.93;4.80;;;;;;;;;;4988051;28;20318;-62
2023/09/11 03:57:57;;;;;;;5.22;4.50;;;;;;;;;;4988620;28;20061;-61
2023/09/11 04:00:23;;;;;;;4.63;4.32;;;;;;;;;;4983895;28;20460;-62
2023/09/11 04:02:48;;;;;;;5.05;4.32;;;;;;;;;;4991473;28;20069;-62
2023/09/11 04:05:14;;;;;;;4.90;4.50;;;;;;;;;;4986179;28;20435;-62
2023/09/11 04:07:39;;;;;;;5.40;4.90;;;;;;;;;;4992869;28;20037;-62
2023/09/11 04:10:06;;;;;;;4.50;4.20;;;;;;;;;;4992897;28;20129;-62
2023/09/11 04:12:32;;;;;;;5.03;4.60;;;;;;;;;;4995730;28;20100;-62
2023/09/11 04:14:57;;;;;;;5.50;4.60;;;;;;;;;;4981602;28;20038;-62
2023/09/11 04:17:22;;;;;;;5.18;4.72;;;;;;;;;;5003641;28;20891;-62
2023/09/11 04:19:48;;;;;;;5.38;4.93;;;;;;;;;;4989045;28;20097;-62
2023/09/11 04:22:13;;;;;;;5.13;4.63;;;;;;;;;;4990053;28;20031;-62
2023/09/11 04:24:39;;;;;;;4.70;4.30;;;;;;;;;;4996173;28;20045;-62
2023/09/11 04:27:05;;;;;;;5.18;4.22;;;;;;;;;;4993951;28;20037;-62
2023/09/11 04:29:31;;;;;;;8.45;4.88;;;;;;;;;;4994819;28;20038;-62
2023/09/11 04:31:56;;;;;;;5.63;5.03;;;;;;;;;;4987433;28;20034;-62
2023/09/11 04:34:22;;;;;;;4.95;4.55;;;;;;;;;;4988278;28;20042;-62
2023/09/11 04:36:47;;;;;;;4.88;4.38;;;;;;;;;;4993984;28;20073;-62
2023/09/11 04:39:13;;;;;;;4.93;4.43;;;;;;;;;;4991635;28;20062;-62
2023/09/11 04:41:38;;;;;;;5.80;4.32;;;;;;;;;;5021939;28;20116;-62
2023/09/11 04:44:04;;;;;;;5.65;4.45;;;;;;;;;;4994453;28;20037;-62
2023/09/11 04:46:29;;;;;;;4.25;3.95;;;;;;;;;;4990501;28;20062;-62
2023/09/11 04:48:57;;;;;;;5.57;5.07;;;;;;;;;;4990879;28;20528;-62
2023/09/11 04:51:24;;;;;;;4.75;4.25;;;;;;;;;;4988502;28;20046;-62
2023/09/11 04:53:50;;;;;;;8.07;4.10;;;;;;;;;;4989051;28;20053;-62
2023/09/11 04:56:15;;;;;;;5.97;4.68;;;;;;;;;;4988073;28;20046;-62
2023/09/11 04:58:41;;;;;;;5.63;4.60;;;;;;;;;;4981091;28;20102;-62
2023/09/11 05:01:08;;;;;;;5.10;4.60;;;;;;;;;;4992869;28;20038;-62
2023/09/11 05:03:34;;;;;;;4.82;4.13;;;;;;;;;;4991679;28;20065;-62
2023/09/11 05:05:59;;;;;;;5.97;4.13;;;;;;;;;;4982385;28;21315;-61
2023/09/11 05:08:24;;;;;;;5.60;4.53;;;;;;;;;;5002724;28;20027;-62
2023/09/11 05:10:50;;;;;;;5.50;4.07;;;;;;;;;;4991207;28;20451;-62
2023/09/11 05:13:15;;;;;;;6.80;4.22;;;;;;;;;;4995935;28;20081;-63
2023/09/11 05:15:41;;;;;;;4.72;4.32;;;;;;;;;;4988073;28;20160;-62
2023/09/11 05:18:06;;;;;;;4.63;4.10;;;;;;;;;;4990845;28;20054;-61
2023/09/11 05:20:32;;;;;;;4.75;4.35;;;;;;;;;;4986861;28;20639;-64
2023/09/11 05:22:57;;;;;;;5.95;4.50;;;;;;;;;;4988192;28;20030;-61
2023/09/11 05:25:23;;;;;;;8.73;4.28;;;;;;;;;;4986596;28;20851;-61
2023/09/11 05:27:49;;;;;;;6.22;4.43;;;;;;;;;;4991665;28;20045;-61
2023/09/11 05:30:14;;;;;;;4.75;4.45;;;;;;;;;;4986427;28;20043;-62
2023/09/11 05:32:40;;;;;;;8.23;4.07;;;;;;;;;;4988649;28;20037;-62
2023/09/11 05:35:06;;;;;;;6.05;4.50;;;;;;;;;;4986380;28;20081;-62
2023/09/11 05:37:32;;;;;;;6.60;4.68;;;;;;;;;;4988248;28;20058;-63
2023/09/11 05:39:58;;;;;;;6.10;4.30;;;;;;;;;;4990888;28;20062;-65
2023/09/11 05:42:24;;;;;;;5.93;4.57;;;;;;;;;;4987809;28;20030;-63
2023/09/11 05:44:49;;;;;;;8.23;4.30;;;;;;;;;;4988892;28;20073;-62
2023/09/11 05:47:15;;;;;;;7.43;4.50;;;;;;;;;;4987653;28;20122;-64
2023/09/11 05:49:40;;;;;;;5.25;4.28;;;;;;;;;;4986649;28;20030;-63
2023/09/11 05:52:06;;;;;;;8.57;4.25;;;;;;;;;;4996270;28;20041;-63
2023/09/11 05:54:33;;;;;;;5.97;4.60;;;;;;;;;;4986082;28;20069;-63
2023/09/11 05:57:00;;;;;;;5.65;4.13;;;;;;;;;;4998286;28;20081;-63
2023/09/11 05:59:26;;;;;;;11.07;4.72;;;;;;;;;;4991983;28;20043;-63
2023/09/11 06:01:52;;;;;;;6.22;4.35;;;;;;;;;;4995783;28;20081;-63
2023/09/11 06:04:17;;;;;;;6.15;4.32;;;;;;;;;;4992404;28;20038;-63
2023/09/11 06:06:43;;;;;;;5.32;4.43;;;;;;;;;;4997302;28;20036;-63
2023/09/11 06:09:09;;;;;;;4.63;4.22;;;;;;;;;;4992361;28;20030;-63
2023/09/11 06:11:35;;;;;;;6.35;4.50;;;;;;;;;;4994433;28;20021;-63
2023/09/11 06:14:01;;;;;;;5.47;4.78;;;;;;;;;;4987898;28;20395;-63
2023/09/11 06:16:26;;;;;;;4.70;4.30;;;;;;;;;;4989505;28;20030;-62
2023/09/11 06:18:52;;;;;;;6.20;4.32;;;;;;;;;;4987502;28;20495;-62
2023/09/11 06:21:18;;;;;;;5.05;4.55;;;;;;;;;;4994062;28;20571;-62
2023/09/11 06:23:43;;;;;;;4.88;4.35;;;;;;;;;;4986346;28;20113;-62
2023/09/11 06:26:09;;;;;;;6.93;4.43;;;;;;;;;;4995103;28;20065;-63
2023/09/11 06:28:34;;;;;;;5.60;4.03;;;;;;;;;;4986787;28;20058;-62
2023/09/11 06:31:00;;;;;;;4.13;3.72;;;;;;;;;;4988806;28;20396;-62
2023/09/11 06:33:27;;;;;;;4.93;4.43;;;;;;;;;;4992685;28;20030;-66
2023/09/11 06:35:54;;;;;;;5.00;4.40;;;;;;;;;;4991207;28;20105;-66
2023/09/11 06:38:20;;;;;;;4.60;4.07;;;;;;;;;;4994307;28;20057;-65
2023/09/11 06:40:45;;;;;;;4.40;3.72;;;;;;;;;;4987619;28;20038;-66
2023/09/11 06:43:11;;;;;;;5.80;4.20;;;;;;;;;;4979283;28;22020;-65
2023/09/11 06:45:38;;;;;;;6.65;4.30;;;;;;;;;;4982188;28;20700;-62
2023/09/11 06:48:04;;;;;;;6.00;4.00;;;;;;;;;;4986077;28;20796;-62
2023/09/11 06:50:30;;;;;;;6.00;4.50;;;;;;;;;;4982725;28;20066;-62
2023/09/11 06:52:55;;;;;;;9.20;4.10;;;;;;;;;;4988586;28;20073;-65
2023/09/11 06:55:20;;;;;;;4.53;4.13;;;;;;;;;;4999396;28;20396;-65
2023/09/11 06:57:57;;;;;;;4.53;4.13;;;;;;;;;;4997787;28;20097;-65
2023/09/11 07:00:22;;;;;;;4.50;4.10;;;;;;;;;;4991836;28;20073;-65
2023/09/11 07:02:48;;;;;;;4.97;3.97;;;;;;;;;;4992867;28;20388;-65
2023/09/11 07:05:16;;;;;;;4.20;3.80;;;;;;;;;;4992507;28;20039;-65
2023/09/11 07:07:41;;;;;;;8.60;4.30;;;;;;;;;;4990058;28;20029;-65
2023/09/11 07:10:20;;;;;;;12.38;4.45;;;;;;;;;;4992674;28;20540;-66
2023/09/11 07:12:47;;;;;;;4.50;4.00;;;;;;;;;;5022998;28;20034;-65
2023/09/11 07:15:13;;;;;;;5.50;4.00;;;;;;;;;;4992179;28;20173;-65
2023/09/11 07:17:38;;;;;;;6.88;4.40;;;;;;;;;;4991582;28;20085;-65
2023/09/11 07:20:04;;;;;;;5.90;3.85;;;;;;;;;;4989720;28;20089;-66
2023/09/11 07:22:30;;;;;;;5.22;4.40;;;;;;;;;;4983247;28;20121;-65
2023/09/11 07:24:56;;;;;;;4.32;4.00;;;;;;;;;;4992186;28;20100;-66
2023/09/11 07:27:22;;;;;;;5.50;3.97;;;;;;;;;;4994116;28;20026;-65
2023/09/11 07:29:49;;;;;;;4.25;3.88;;;;;;;;;;4993749;28;20053;-65
2023/09/11 07:32:14;;;;;;;4.35;3.95;;;;;;;;;;4992716;28;20041;-65
2023/09/11 07:34:40;;;;;;;5.25;3.80;;;;;;;;;;4984852;28;20413;-65
2023/09/11 07:37:05;;;;;;;4.13;3.83;;;;;;;;;;4996663;28;20029;-65
2023/09/11 07:39:31;;;;;;;4.00;3.70;;;;;;;;;;4995985;28;20085;-65
2023/09/11 07:41:56;;;;;;;4.93;4.50;;;;;;;;;;4994101;28;20030;-65
2023/09/11 07:44:21;;;;;;;4.00;3.70;;;;;;;;;;4987079;28;20066;-65
2023/09/11 07:46:48;;;;;;;3.70;3.40;;;;;;;;;;4983063;28;20030;-65
2023/09/11 07:49:14;;;;;;;4.63;4.10;;;;;;;;;;4995151;28;20034;-65
2023/09/11 07:51:39;;;;;;;4.32;3.80;;;;;;;;;;4986714;28;20026;-65
2023/09/11 07:54:05;;;;;;;4.28;3.88;;;;;;;;;;4992373;28;20042;-66
2023/09/11 07:56:30;;;;;;;7.22;4.00;;;;;;;;;;4991375;28;20084;-65
2023/09/11 07:58:56;;;;;;;4.20;3.90;;;;;;;;;;4987851;28;20027;-61
2023/09/11 08:01:25;;;;;;;4.38;4.07;;;;;;;;;;4995595;28;20544;-65
2023/09/11 08:03:51;;;;;;;4.20;3.90;;;;;;;;;;4994281;28;20464;-65
2023/09/11 08:06:16;;;;;;;4.30;3.85;;;;;;;;;;4993646;28;20096;-65
2023/09/11 08:08:42;;;;;;;3.95;3.65;;;;;;;;;;4993031;28;20026;-65
2023/09/11 08:11:15;;;;;;;4.07;3.78;;;;;;;;;;4990572;28;20038;-65
2023/09/11 08:13:42;;;;;;;4.40;4.10;;;;;;;;;;4989730;28;20532;-65
2023/09/11 08:16:08;;;;;;;4.70;4.30;;;;;;;;;;4991761;28;20081;-65
2023/09/11 08:18:34;;;;;;;14.50;4.53;;;;;;;;;;4991543;28;20516;-65
2023/09/11 08:21:00;;;;;;;4.43;4.03;;;;;;;;;;4992090;28;20408;-65
2023/09/11 08:23:25;;;;;;;4.43;3.97;;;;;;;;;;4987393;28;20038;-65
2023/09/11 08:25:56;;;;;;;4.25;3.95;;;;;;;;;;4993591;28;20034;-65
2023/09/11 08:28:21;;;;;;;4.72;4.10;;;;;;;;;;4982929;28;20027;-65
2023/09/11 08:30:46;;;;;;;12.52;4.40;;;;;;;;;;4994649;28;20061;-65
2023/09/11 08:33:12;;;;;;;4.97;4.47;;;;;;;;;;4992266;28;20040;-65
2023/09/11 08:35:37;;;;;;;6.07;5.00;;;;;;;;;;4989541;28;20039;-65
2023/09/11 08:38:03;;;;;;;6.50;4.45;;;;;;;;;;4991121;28;20035;-65
2023/09/11 08:40:32;;;;;;;7.03;4.63;;;;;;;;;;4995505;28;20454;-65
2023/09/11 08:42:59;;;;;;;7.75;4.70;;;;;;;;;;4988906;28;20391;-65
2023/09/11 08:45:26;;;;;;;5.68;4.47;;;;;;;;;;4992816;28;20081;-65
2023/09/11 08:47:55;;;;;;;5.70;5.20;;;;;;;;;;5005786;28;20054;-65
2023/09/11 08:50:25;;;;;;;5.22;4.53;;;;;;;;;;4992409;28;20042;-65
2023/09/11 08:52:51;;;;;;;5.32;4.82;;;;;;;;;;4990750;28;20023;-65
2023/09/11 08:55:19;;;;;;;6.10;5.20;;;;;;;;;;4994875;28;20057;-65
2023/09/11 08:57:45;;;;;;;6.38;5.55;;;;;;;;;;4993966;28;20041;-65
2023/09/11 09:00:13;;;;;;;5.50;4.85;;;;;;;;;;4991818;28;20436;-65
2023/09/11 09:02:39;;;;;;;5.13;4.63;;;;;;;;;;4999738;28;20018;-65
2023/09/11 09:05:06;;;;;;;5.47;4.90;;;;;;;;;;4997606;28;20065;-65
2023/09/11 09:07:32;;;;;;;6.03;4.82;;;;;;;;;;4996638;28;20559;-65
2023/09/11 09:09:59;;;;;;;5.95;5.30;;;;;;;;;;4994427;28;20125;-66
2023/09/11 09:12:27;;;;;;;5.82;4.90;;;;;;;;;;4994228;28;20026;-66
2023/09/11 09:14:53;;;;;;;7.18;5.22;;;;;;;;;;4994774;28;20039;-66
2023/09/11 09:17:18;;;;;;;7.63;5.35;;;;;;;;;;4993189;28;20040;-66
2023/09/11 09:19:43;;;;;;;10.02;5.00;;;;;;;;;;4998043;28;20046;-66
2023/09/11 09:22:12;;;;;;;8.38;5.10;;;;;;;;;;4987788;28;20026;-62
2023/09/11 09:24:54;;;;;;;16.42;5.03;;;;;;;;;;4987249;28;20050;-63
2023/09/11 09:27:21;;;;;;;6.03;4.65;;;;;;;;;;4992553;28;20042;-63
2023/09/11 09:29:48;;;;;;;11.85;5.63;;;;;;;;;;4989661;28;20035;-63
2023/09/11 09:32:14;;;;;;;12.77;5.35;;;;;;;;;;4996621;28;20062;-63
2023/09/11 09:34:58;;;;;;;12.68;5.93;;;;;;;;;;4996386;28;20098;-63
2023/09/11 09:37:24;;;;;;;5.80;4.88;;;;;;;;;;4989054;28;20034;-63
2023/09/11 09:39:50;;;;;;;5.93;5.32;;;;;;;;;;4994536;28;20535;-63
2023/09/11 09:42:16;;;;;;;5.85;5.10;;;;;;;;;;4996371;28;20380;-63
2023/09/11 09:44:45;;;;;;;8.60;4.97;;;;;;;;;;4995585;28;20048;-63
2023/09/11 09:47:15;;;;;;;10.15;4.93;;;;;;;;;;4993928;28;20026;-63
2023/09/11 09:49:52;;;;;;;11.20;4.90;;;;;;;;;;4996908;28;20052;-63
2023/09/11 09:52:20;;;;;;;7.43;5.15;;;;;;;;;;4997329;28;20041;-63
2023/09/11 09:54:49;;;;;;;5.00;4.50;;;;;;;;;;4996853;28;20062;-63
2023/09/11 09:57:17;;;;;;;7.50;4.95;;;;;;;;;;4998487;28;20026;-63
2023/09/11 09:59:48;;;;;;;7.47;5.05;;;;;;;;;;4996367;28;20046;-63
2023/09/11 10:02:13;;;;;;;6.60;4.80;;;;;;;;;;4981811;28;20034;-63
2023/09/11 10:04:39;;;;;;;12.82;4.80;;;;;;;;;;4986794;28;20515;-62
2023/09/11 10:07:05;;;;;;;4.80;4.35;;;;;;;;;;4997346;28;20041;-63
2023/09/11 10:09:31;;;;;;;5.20;4.45;;;;;;;;;;4996140;28;20042;-63
2023/09/11 10:12:03;;;;;;;5.68;5.15;;;;;;;;;;4995996;28;20034;-63
2023/09/11 10:14:29;;;;;;;9.52;5.20;;;;;;;;;;4995071;28;20053;-63
2023/09/11 10:16:57;;;;;;;8.13;4.50;;;;;;;;;;4997205;28;20026;-63
2023/09/11 10:19:23;;;;;;;5.65;4.53;;;;;;;;;;4993202;28;20156;-63
2023/09/11 10:21:49;;;;;;;4.68;4.15;;;;;;;;;;4988208;28;20084;-63
2023/09/11 10:24:14;;;;;;;7.15;4.50;;;;;;;;;;4994683;28;20019;-63
2023/09/11 10:26:55;;;;;;;8.82;4.68;;;;;;;;;;4986141;28;20477;-63
2023/09/11 10:29:30;;;;;;;4.95;4.32;;;;;;;;;;4990836;28;20786;-63
2023/09/11 10:32:09;;;;;;;10.98;4.82;;;;;;;;;;4985132;28;20101;-63
2023/09/11 10:34:37;;;;;;;7.43;5.05;;;;;;;;;;4984797;28;20039;-63
2023/09/11 10:37:04;;;;;;;5.20;4.70;;;;;;;;;;4986039;28;20038;-63
2023/09/11 10:39:31;;;;;;;6.95;4.47;;;;;;;;;;5026857;28;20042;-62
2023/09/11 10:41:56;;;;;;;5.65;4.75;;;;;;;;;;4992285;28;20096;-63
2023/09/11 10:44:22;;;;;;;5.53;4.53;;;;;;;;;;4987286;28;20042;-63
2023/09/11 10:46:52;;;;;;;5.18;4.60;;;;;;;;;;4988602;28;20488;-63
2023/09/11 10:49:19;;;;;;;4.82;3.92;;;;;;;;;;4991690;28;20090;-63
2023/09/11 10:51:46;;;;;;;4.32;4.00;;;;;;;;;;4995300;28;20088;-63
2023/09/11 10:54:15;;;;;;;4.10;3.75;;;;;;;;;;4997507;28;20050;-63
2023/09/11 10:56:42;;;;;;;4.38;4.07;;;;;;;;;;4995997;28;20077;-63
2023/09/11 10:59:07;;;;;;;5.32;3.90;;;;;;;;;;4992572;28;20034;-63
2023/09/11 11:01:33;;;;;;;4.38;3.97;;;;;;;;;;4996886;28;20743;-63
2023/09/11 11:04:04;;;;;;;8.30;3.90;;;;;;;;;;4997486;28;20061;-62
2023/09/11 11:06:31;;;;;;;5.97;4.50;;;;;;;;;;4997432;28;20065;-63
2023/09/11 11:08:57;;;;;;;4.93;4.07;;;;;;;;;;4994415;28;20476;-62
2023/09/11 11:11:29;;;;;;;4.50;4.10;;;;;;;;;;4990587;28;20031;-63
2023/09/11 11:14:14;;;;;;;4.55;4.15;;;;;;;;;;4986733;28;20485;-63
2023/09/11 11:16:53;;;;;;;7.50;4.18;;;;;;;;;;4993300;28;20050;-62
2023/09/11 11:19:26;;;;;;;6.95;4.45;;;;;;;;;;4992299;28;20504;-61
2023/09/11 11:21:52;;;;;;;3.97;3.67;;;;;;;;;;4993567;28;20108;-62
2023/09/11 11:24:22;;;;;;;3.95;3.30;;;;;;;;;;4990720;28;20050;-62
2023/09/11 11:26:48;;;;;;;5.53;4.38;;;;;;;;;;4984833;28;20082;-61
2023/09/11 11:29:16;;;;;;;4.70;4.25;;;;;;;;;;4988263;28;20079;-61
2023/09/11 11:31:43;;;;;;;6.15;4.47;;;;;;;;;;4993869;28;20021;-63
2023/09/11 11:34:10;;;;;;;5.70;3.85;;;;;;;;;;4995354;28;20032;-63
2023/09/11 11:36:38;;;;;;;8.15;3.92;;;;;;;;;;4981587;28;20031;-62
2023/09/11 11:39:03;;;;;;;3.83;3.50;;;;;;;;;;4986863;28;20065;-62
2023/09/11 11:41:30;;;;;;;5.90;3.90;;;;;;;;;;4993801;28;20014;-62
2023/09/11 11:43:57;;;;;;;3.75;3.45;;;;;;;;;;4987014;28;20030;-62
2023/09/11 11:46:28;;;;;;;4.05;3.65;;;;;;;;;;4990794;28;20034;-62
2023/09/11 11:48:53;;;;;;;4.73;3.77;;;;;;;;;;4984751;28;20057;-62
2023/09/11 11:51:32;;;;;;;4.93;3.53;;;;;;;;;;4980066;28;20062;-64
2023/09/11 11:53:58;;;;;;;5.60;3.38;;;;;;;;;;4980315;28;20035;-63
2023/09/11 11:56:26;;;;;;;3.72;3.42;;;;;;;;;;4982472;28;20038;-64
2023/09/11 11:58:55;;;;;;;4.95;3.38;;;;;;;;;;4992322;28;20022;-64
2023/09/11 12:01:21;;;;;;;3.47;3.22;;;;;;;;;;4984119;28;20046;-63
2023/09/11 12:03:50;;;;;;;3.97;3.58;;;;;;;;;;4978076;28;20388;-63
2023/09/11 12:06:16;;;;;;;4.70;4.10;;;;;;;;;;4991743;28;20035;-63
2023/09/11 12:08:44;;;;;;;10.95;5.70;;;;;;;;;;4994123;28;20018;-63
2023/09/11 12:11:10;;;;;;;7.97;5.30;;;;;;;;;;4983987;28;20066;-63
2023/09/11 12:13:36;;;;;;;11.70;5.25;;;;;;;;;;4987719;28;20066;-63
2023/09/11 12:16:02;;;;;;;25.77;5.90;;;;;;;;;;4988815;28;20153;-63
2023/09/11 12:18:30;;;;;;;11.65;5.75;;;;;;;;;;4986984;28;20082;-64
2023/09/11 12:21:03;;;;;;;9.73;5.10;;;;;;;;;;4986229;28;20586;-63
2023/09/11 12:23:29;;;;;;;7.70;4.78;;;;;;;;;;4982972;28;20038;-67
2023/09/11 12:25:55;;;;;;;7.25;4.50;;;;;;;;;;4990081;28;20038;-67
2023/09/11 12:28:22;;;;;;;4.88;4.38;;;;;;;;;;4987447;28;20042;-67
2023/09/11 12:30:48;;;;;;;12.10;4.20;;;;;;;;;;4991727;28;20097;-67
2023/09/11 12:33:16;;;;;;;5.20;3.70;;;;;;;;;;4986438;28;20034;-67
2023/09/11 12:35:46;;;;;;;10.43;4.10;;;;;;;;;;4994326;28;20496;-67
2023/09/11 12:38:12;;;;;;;8.98;4.03;;;;;;;;;;5000257;28;20069;-68
2023/09/11 12:40:39;;;;;;;8.63;3.80;;;;;;;;;;4996180;28;20104;-67
2023/09/11 12:43:05;;;;;;;5.18;3.88;;;;;;;;;;4992735;28;20037;-67
2023/09/11 12:45:32;;;;;;;4.75;4.15;;;;;;;;;;4989284;28;20038;-67
2023/09/11 12:47:57;;;;;;;3.72;3.42;;;;;;;;;;4999725;28;20037;-67
2023/09/11 12:50:23;;;;;;;4.30;4.00;;;;;;;;;;4994678;28;20189;-67
2023/09/11 12:52:48;;;;;;;4.13;3.72;;;;;;;;;;4993081;28;20034;-67
2023/09/11 12:55:14;;;;;;;4.38;3.17;;;;;;;;;;4998738;28;20516;-67
2023/09/11 12:57:40;;;;;;;3.40;3.20;;;;;;;;;;4999653;28;20045;-67
2023/09/11 13:00:08;;;;;;;4.65;3.10;;;;;;;;;;4991278;28;21181;-67
2023/09/11 13:02:33;;;;;;;3.45;3.15;;;;;;;;;;4998363;28;20054;-67
2023/09/11 13:04:58;;;;;;;3.72;2.80;;;;;;;;;;4995973;28;20038;-67
2023/09/11 13:07:24;;;;;;;3.72;3.20;;;;;;;;;;4997790;28;20050;-67
2023/09/11 13:09:50;;;;;;;3.20;3.00;;;;;;;;;;4996099;28;20396;-67
2023/09/11 13:12:16;;;;;;;3.42;3.05;;;;;;;;;;4997630;28;20030;-67
2023/09/11 13:14:41;;;;;;;2.78;2.58;;;;;;;;;;4993089;28;20520;-67
2023/09/11 13:17:07;;;;;;;4.55;3.03;;;;;;;;;;4995847;28;20049;-67
2023/09/11 13:19:32;;;;;;;3.28;3.05;;;;;;;;;;4993873;28;20742;-66
2023/09/11 13:21:58;;;;;;;4.07;3.20;;;;;;;;;;4992986;28;20109;-67
2023/09/11 13:24:24;;;;;;;3.28;3.08;;;;;;;;;;4995340;28;20050;-67
2023/09/11 13:26:49;;;;;;;3.55;3.22;;;;;;;;;;4986815;28;20019;-66
2023/09/11 13:29:15;;;;;;;5.55;3.08;;;;;;;;;;4998062;28;20022;-67
2023/09/11 13:31:40;;;;;;;3.50;3.20;;;;;;;;;;4997346;28;20053;-67
2023/09/11 13:34:07;;;;;;;3.13;2.88;;;;;;;;;;4998414;28;20034;-67
2023/09/11 13:36:33;;;;;;;2.90;2.70;;;;;;;;;;4991370;28;20388;-67
2023/09/11 13:38:58;;;;;;;2.70;2.60;;;;;;;;;;4992211;28;20113;-66
2023/09/11 13:41:23;;;;;;;2.72;2.53;;;;;;;;;;4970344;28;20033;-68
2023/09/11 13:43:50;;;;;;;3.47;3.10;;;;;;;;;;4988222;28;20033;-66
2023/09/11 13:46:16;;;;;;;2.97;2.78;;;;;;;;;;4979086;28;20026;-67
2023/09/11 13:48:41;;;;;;;3.30;2.97;;;;;;;;;;4998735;28;20571;-67
2023/09/11 13:51:07;;;;;;;3.03;2.80;;;;;;;;;;4989440;28;20141;-67
2023/09/11 13:53:32;;;;;;;4.47;2.95;;;;;;;;;;4997072;28;20035;-68
2023/09/11 13:55:58;;;;;;;3.45;3.22;;;;;;;;;;4994956;28;20050;-67
2023/09/11 13:58:23;;;;;;;3.30;3.00;;;;;;;;;;4996053;28;20042;-67
2023/09/11 14:00:49;;;;;;;3.40;2.78;;;;;;;;;;4983295;28;20043;-65
2023/09/11 14:03:14;;;;;;;3.10;2.80;;;;;;;;;;4990558;28;20027;-67
2023/09/11 14:05:40;;;;;;;3.22;2.78;;;;;;;;;;4995403;28;20026;-68
2023/09/11 14:08:05;;;;;;;2.90;2.70;;;;;;;;;;4998333;28;20034;-68
2023/09/11 14:10:31;;;;;;;2.80;2.60;;;;;;;;;;4992392;28;20496;-67
2023/09/11 14:12:56;;;;;;;10.68;3.33;;;;;;;;;;4995994;28;20109;-67
2023/09/11 14:15:22;;;;;;;17.25;3.17;;;;;;;;;;4991853;28;20045;-66
2023/09/11 14:17:47;;;;;;;4.75;2.90;;;;;;;;;;4993580;28;20385;-67
2023/09/11 14:20:13;;;;;;;3.35;2.60;;;;;;;;;;4993103;28;20034;-67
2023/09/11 14:22:41;;;;;;;3.90;2.60;;;;;;;;;;4986565;28;20037;-66
2023/09/11 14:25:07;;;;;;;2.75;2.55;;;;;;;;;;4982636;28;20038;-67
2023/09/11 14:27:32;;;;;;;2.97;2.63;;;;;;;;;;4994753;28;20089;-67
2023/09/11 14:29:58;;;;;;;4.28;2.90;;;;;;;;;;4995946;28;20533;-67
2023/09/11 14:32:23;;;;;;;2.72;2.53;;;;;;;;;;4977254;28;20045;-67
2023/09/11 14:34:48;;;;;;;4.57;2.72;;;;;;;;;;4990216;28;20050;-67
2023/09/11 14:37:14;;;;;;;4.63;2.60;;;;;;;;;;4981142;28;20102;-67
2023/09/11 14:39:39;;;;;;;7.47;2.83;;;;;;;;;;4994350;28;20043;-67
2023/09/11 14:42:05;;;;;;;2.80;2.60;;;;;;;;;;4988096;28;20065;-67